createdAt,value
2022-12-26T00:00:59.472Z,99542.78
2022-12-26T00:03:27.203Z,99539.97
2022-12-26T00:05:56.284Z,99526.25
2022-12-26T00:08:23.992Z,99515.56
2022-12-26T00:10:51.544Z,99526.84
2022-12-26T00:13:40.393Z,99532.44
2022-12-26T00:16:08.325Z,99527.97
2022-12-26T00:18:35.946Z,99517.72
2022-12-26T00:21:05.483Z,99525.63
2022-12-26T00:23:33.767Z,99517.84
2022-12-26T00:26:04.138Z,99527.06
2022-12-26T00:28:31.847Z,99537.69
2022-12-26T00:30:59.694Z,99541.56
2022-12-26T00:33:28.124Z,99548.13
2022-12-26T00:35:55.739Z,99538.69
2022-12-26T00:38:24.853Z,99536.78
2022-12-26T00:40:52.374Z,99546.41
2022-12-26T00:43:20.015Z,99538.00
2022-12-26T00:45:49.070Z,99531.41
2022-12-26T00:48:16.643Z,99533.00
2022-12-26T00:50:44.220Z,99528.50
2022-12-26T00:53:11.859Z,99536.72
2022-12-26T00:55:41.126Z,99533.78
2022-12-26T00:58:08.876Z,99523.34
2022-12-26T01:00:37.530Z,99521.88
2022-12-26T01:03:07.951Z,99516.00
2022-12-26T01:05:35.998Z,99514.28
2022-12-26T01:08:22.986Z,99518.03
2022-12-26T01:10:53.356Z,99513.03
2022-12-26T01:13:21.352Z,99512.19
2022-12-26T01:15:50.897Z,99509.75
2022-12-26T01:18:18.683Z,99522.75
2022-12-26T01:20:46.394Z,99543.00
2022-12-26T01:23:14.144Z,99547.13
2022-12-26T01:26:16.350Z,99540.41
2022-12-26T01:28:30.846Z,99545.22
2022-12-26T01:31:02.644Z,99538.09
2022-12-26T01:33:30.390Z,99541.56
2022-12-26T01:35:58.069Z,99542.09
2022-12-26T01:38:25.766Z,99541.75
2022-12-26T01:41:13.410Z,99534.13
2022-12-26T01:43:54.732Z,99534.66
2022-12-26T01:46:25.412Z,99533.03
2022-12-26T01:48:54.160Z,99533.69
2022-12-26T01:51:26.854Z,99521.38
2022-12-26T01:54:41.013Z,99526.84
2022-12-26T01:56:48.406Z,99529.50
2022-12-26T01:59:23.086Z,99533.16
2022-12-26T02:01:54.706Z,99533.16
2022-12-26T02:04:49.374Z,99546.03
2022-12-26T02:07:17.048Z,99545.03
2022-12-26T02:09:44.648Z,99536.13
2022-12-26T02:12:33.996Z,99554.13
2022-12-26T02:15:11.311Z,99542.09
2022-12-26T02:17:40.250Z,99546.81
2022-12-26T02:20:18.591Z,99557.44
2022-12-26T02:23:12.579Z,99541.09
2022-12-26T02:26:16.585Z,99552.59
2022-12-26T02:29:28.358Z,99560.31
2022-12-26T02:32:06.669Z,99548.19
2022-12-26T02:34:41.320Z,99545.66
2022-12-26T02:37:25.012Z,99540.56
2022-12-26T02:40:08.962Z,99542.63
2022-12-26T02:42:49.898Z,99533.00
2022-12-26T02:45:44.156Z,99539.97
2022-12-26T02:48:19.092Z,99534.41
2022-12-26T02:51:17.666Z,99527.28
2022-12-26T02:54:09.993Z,99515.78
2022-12-26T02:56:58.798Z,99526.66
2022-12-26T02:59:55.974Z,99525.66
2022-12-26T03:02:48.765Z,99518.22
2022-12-26T03:05:40.777Z,99521.28
2022-12-26T03:08:31.413Z,99523.56
2022-12-26T03:11:17.311Z,99526.97
2022-12-26T03:13:46.899Z,99520.84
2022-12-26T03:16:34.426Z,99519.22
2022-12-26T03:19:07.413Z,99512.88
2022-12-26T03:21:40.941Z,99509.66
2022-12-26T03:24:12.006Z,99506.78
2022-12-26T03:26:43.632Z,99511.31
2022-12-26T03:29:30.904Z,99512.50
2022-12-26T03:31:59.433Z,99517.81
2022-12-26T03:34:28.249Z,99523.06
2022-12-26T03:37:47.282Z,99529.22
2022-12-26T03:40:47.639Z,99532.22
2022-12-26T03:43:43.415Z,99532.44
2022-12-26T03:46:36.048Z,99530.97
2022-12-26T03:49:28.065Z,99549.78
2022-12-26T03:52:20.232Z,99548.09
2022-12-26T03:55:13.685Z,99536.41
2022-12-26T03:58:07.996Z,99547.19
2022-12-26T04:00:54.247Z,99559.06
2022-12-26T04:03:42.650Z,99573.13
2022-12-26T04:06:35.705Z,99562.88
2022-12-26T04:09:38.047Z,99567.81
2022-12-26T04:12:29.725Z,99564.78
2022-12-26T04:15:19.025Z,99567.81
2022-12-26T04:18:09.413Z,99566.41
2022-12-26T04:20:44.427Z,99564.50
2022-12-26T04:23:37.110Z,99555.53
2022-12-26T04:26:27.669Z,99577.19
2022-12-26T04:29:14.243Z,99578.84
2022-12-26T04:32:05.242Z,99574.25
2022-12-26T04:35:00.287Z,99572.16
2022-12-26T04:37:47.472Z,99559.53
2022-12-26T04:40:38.584Z,99557.88
2022-12-26T04:43:48.962Z,99558.69
2022-12-26T04:46:16.232Z,99561.09
2022-12-26T04:49:03.640Z,99558.69
2022-12-26T04:51:31.273Z,99575.47
2022-12-26T04:53:58.892Z,99567.22
2022-12-26T04:56:26.487Z,99568.94
2022-12-26T04:58:54.090Z,99572.16
2022-12-26T05:01:40.701Z,99565.47
2022-12-26T05:04:31.039Z,99580.84
2022-12-26T05:07:16.851Z,99568.81
2022-12-26T05:09:44.659Z,99564.66
2022-12-26T05:12:12.333Z,99566.28
2022-12-26T05:14:39.993Z,99563.44
2022-12-26T05:17:26.726Z,99557.88
2022-12-26T05:20:12.074Z,99563.00
2022-12-26T05:23:01.715Z,99555.09
2022-12-26T05:25:51.044Z,99572.94
2022-12-26T05:28:37.318Z,99559.41
2022-12-26T05:31:05.846Z,99573.75
2022-12-26T05:33:52.709Z,99579.25
2022-12-26T05:36:22.758Z,99579.19
2022-12-26T05:38:50.423Z,99592.03
2022-12-26T05:41:18.770Z,99579.19
2022-12-26T05:43:46.616Z,99573.44
2022-12-26T05:46:14.268Z,99566.41
2022-12-26T05:48:43.292Z,99587.25
2022-12-26T05:51:11.096Z,99581.59
2022-12-26T05:53:38.802Z,99572.81
2022-12-26T05:56:07.729Z,99584.34
2022-12-26T05:58:35.591Z,99569.63
2022-12-26T06:01:08.576Z,99573.72
2022-12-26T06:03:36.602Z,99566.16
2022-12-26T06:06:06.415Z,99575.31
2022-12-26T06:08:34.351Z,99571.81
2022-12-26T06:11:06.036Z,99571.19
2022-12-26T06:13:34.384Z,99574.13
2022-12-26T06:16:05.720Z,99578.97
2022-12-26T06:18:33.759Z,99582.91
2022-12-26T06:21:06.287Z,99584.47
2022-12-26T06:23:33.966Z,99592.81
2022-12-26T06:26:01.741Z,99588.44
2022-12-26T06:28:29.450Z,99604.41
2022-12-26T06:31:03.331Z,99603.91
2022-12-26T06:33:31.405Z,99603.84
2022-12-26T06:36:04.391Z,99608.06
2022-12-26T06:38:33.612Z,99617.41
2022-12-26T06:41:01.269Z,99621.69
2022-12-26T06:43:28.928Z,99624.06
2022-12-26T06:45:57.479Z,99625.25
2022-12-26T06:48:25.691Z,99627.53
2022-12-26T06:50:54.384Z,99623.94
2022-12-26T06:53:22.368Z,99608.19
2022-12-26T06:55:52.198Z,99605.63
2022-12-26T06:58:19.846Z,99610.03
2022-12-26T07:00:47.486Z,99618.69
2022-12-26T07:03:15.165Z,99606.22
2022-12-26T07:05:42.817Z,99604.13
2022-12-26T07:08:10.444Z,99618.38
2022-12-26T07:10:38.453Z,99622.13
2022-12-26T07:13:07.463Z,99638.88
2022-12-26T07:15:35.118Z,99643.78
2022-12-26T07:18:02.689Z,99638.69
2022-12-26T07:20:30.291Z,99642.97
2022-12-26T07:22:57.882Z,99648.25
2022-12-26T07:25:25.513Z,99649.03
2022-12-26T07:27:54.992Z,99655.16
2022-12-26T07:30:23.994Z,99664.28
2022-12-26T07:32:51.599Z,99675.59
2022-12-26T07:35:19.208Z,99657.13
2022-12-26T07:37:46.746Z,99668.31
2022-12-26T07:40:14.585Z,99665.66
2022-12-26T07:42:42.102Z,99677.44
2022-12-26T07:45:10.559Z,99669.13
2022-12-26T07:47:39.679Z,99659.19
2022-12-26T07:50:08.614Z,99665.28
2022-12-26T07:52:36.179Z,99670.59
2022-12-26T07:55:04.444Z,99679.09
2022-12-26T07:57:48.717Z,99682.03
2022-12-26T08:00:18.808Z,99684.06
2022-12-26T08:02:48.699Z,99689.16
2022-12-26T08:05:17.207Z,99697.31
2022-12-26T08:07:47.230Z,99704.97
2022-12-26T08:10:14.884Z,99705.59
2022-12-26T08:12:42.440Z,99701.66
2022-12-26T08:15:12.585Z,99703.13
2022-12-26T08:17:40.206Z,99705.97
2022-12-26T08:20:10.072Z,99715.91
2022-12-26T08:22:37.685Z,99726.22
2022-12-26T08:25:06.369Z,99721.91
2022-12-26T08:27:34.907Z,99724.44
2022-12-26T08:30:02.616Z,99733.41
2022-12-26T08:32:30.235Z,99740.72
2022-12-26T08:34:57.911Z,99740.34
2022-12-26T08:37:26.961Z,99747.19
2022-12-26T08:39:54.540Z,99740.59
2022-12-26T08:42:22.895Z,99727.50
2022-12-26T08:44:50.645Z,99726.69
2022-12-26T08:47:18.299Z,99726.84
2022-12-26T08:49:45.969Z,99711.25
2022-12-26T08:52:40.294Z,99708.81
2022-12-26T08:55:09.889Z,99694.72
2022-12-26T08:57:37.511Z,99688.09
2022-12-26T09:00:07.674Z,99694.59
2022-12-26T09:02:35.493Z,99694.28
2022-12-26T09:05:03.183Z,99712.84
2022-12-26T09:07:30.786Z,99731.84
2022-12-26T09:09:59.715Z,99743.97
2022-12-26T09:12:27.838Z,99761.16
2022-12-26T09:14:55.550Z,99760.97
2022-12-26T09:17:26.267Z,99766.44
2022-12-26T09:19:53.944Z,99747.22
2022-12-26T09:22:39.198Z,99741.22
2022-12-26T09:25:08.896Z,99743.53
2022-12-26T09:27:36.481Z,99733.75
2022-12-26T09:30:04.560Z,99711.03
2022-12-26T09:32:33.908Z,99746.78
2022-12-26T09:35:01.837Z,99774.81
2022-12-26T09:37:29.546Z,99789.41
2022-12-26T09:39:57.268Z,99789.91
2022-12-26T09:42:33.227Z,99793.72
2022-12-26T09:45:09.453Z,99797.38
2022-12-26T09:47:42.409Z,99796.19
2022-12-26T09:50:15.887Z,99778.28
2022-12-26T09:52:49.632Z,99776.59
2022-12-26T09:55:30.405Z,99767.94
2022-12-26T09:58:05.683Z,99770.88
2022-12-26T10:00:39.564Z,99764.34
2022-12-26T10:03:08.091Z,99746.97
2022-12-26T10:05:41.718Z,99755.41
2022-12-26T10:08:23.083Z,99769.78
2022-12-26T10:10:58.514Z,99762.19
2022-12-26T10:13:35.321Z,99759.44
2022-12-26T10:16:09.708Z,99763.75
2022-12-26T10:18:54.424Z,99758.94
2022-12-26T10:21:36.780Z,99751.16
2022-12-26T10:24:15.650Z,99761.22
2022-12-26T10:26:47.062Z,99769.34
2022-12-26T10:29:22.262Z,99792.22
2022-12-26T10:31:54.531Z,99781.28
2022-12-26T10:34:26.663Z,99780.09
2022-12-26T10:37:00.186Z,99774.47
2022-12-26T10:39:34.221Z,99772.09
2022-12-26T10:42:09.181Z,99786.00
2022-12-26T10:44:38.472Z,99765.91
2022-12-26T10:47:20.592Z,99777.78
2022-12-26T10:49:49.455Z,99781.88
2022-12-26T10:52:19.110Z,99793.38
2022-12-26T10:54:50.288Z,99793.06
2022-12-26T10:57:41.371Z,99771.38
2022-12-26T11:00:20.952Z,99780.16
2022-12-26T11:03:03.432Z,99788.13
2022-12-26T11:08:22.694Z,99781.31
2022-12-26T11:11:05.529Z,99779.78
2022-12-26T11:13:39.978Z,99783.25
2022-12-26T11:16:10.954Z,99782.41
2022-12-26T11:18:47.713Z,99787.56
2022-12-26T11:21:23.164Z,99779.22
2022-12-26T11:23:52.477Z,99773.38
2022-12-26T11:26:23.448Z,99788.25
2022-12-26T11:29:07.433Z,99774.81
2022-12-26T11:31:37.247Z,99773.88
2022-12-26T11:34:10.427Z,99786.81
2022-12-26T11:36:41.423Z,99781.88
2022-12-26T11:39:23.121Z,99791.22
2022-12-26T11:41:52.070Z,99783.75
2022-12-26T11:44:26.283Z,99779.78
2022-12-26T11:47:00.024Z,99782.00
2022-12-26T11:49:31.877Z,99771.47
2022-12-26T11:52:01.795Z,99787.13
2022-12-26T11:54:36.327Z,99791.72
2022-12-26T11:57:12.793Z,99782.75
2022-12-26T11:59:40.658Z,99778.72
2022-12-26T12:02:30.637Z,99780.81
2022-12-26T12:05:01.703Z,99772.28
2022-12-26T12:08:00.229Z,99764.25
2022-12-26T12:10:51.436Z,99760.78
2022-12-26T12:13:31.073Z,99760.88
2022-12-26T12:16:05.758Z,99759.66
2022-12-26T12:18:48.720Z,99782.19
2022-12-26T12:21:25.328Z,99769.38
2022-12-26T12:24:19.330Z,99764.72
2022-12-26T12:26:58.745Z,99754.53
2022-12-26T12:29:43.174Z,99759.66
2022-12-26T12:32:19.444Z,99759.84
2022-12-26T12:35:17.995Z,99760.13
2022-12-26T12:38:01.497Z,99758.38
2022-12-26T12:40:36.855Z,99767.25
2022-12-26T12:43:16.348Z,99759.28
2022-12-26T12:45:52.539Z,99767.72
2022-12-26T12:48:47.660Z,99776.78
2022-12-26T12:51:27.598Z,99768.81
2022-12-26T12:54:22.350Z,99771.75
2022-12-26T12:56:57.236Z,99767.25
2022-12-26T12:59:33.798Z,99764.03
2022-12-26T13:02:11.041Z,99762.03
2022-12-26T13:04:45.299Z,99748.94
2022-12-26T13:07:19.558Z,99764.03
2022-12-26T13:09:51.042Z,99761.75
2022-12-26T13:12:22.476Z,99771.56
2022-12-26T13:14:53.793Z,99774.66
2022-12-26T13:17:26.077Z,99776.97
2022-12-26T13:20:02.661Z,99774.03
2022-12-26T13:22:53.824Z,99777.16
2022-12-26T13:25:23.512Z,99784.66
2022-12-26T13:27:54.535Z,99781.19
2022-12-26T13:30:22.321Z,99769.63
2022-12-26T13:32:49.919Z,99778.69
2022-12-26T13:35:53.617Z,99770.88
2022-12-26T13:38:24.122Z,99769.38
2022-12-26T13:41:17.760Z,99764.31
2022-12-26T13:44:00.117Z,99786.47
2022-12-26T13:46:38.788Z,99795.16
2022-12-26T13:49:26.467Z,99800.47
2022-12-26T13:52:22.217Z,99797.84
2022-12-26T13:55:30.138Z,99791.81
2022-12-26T13:58:23.633Z,99787.34
2022-12-26T14:00:53.431Z,99795.97
2022-12-26T14:03:53.139Z,99774.63
2022-12-26T14:06:47.018Z,99767.53
2022-12-26T14:09:29.852Z,99774.97
2022-12-26T14:12:11.879Z,99766.81
2022-12-26T14:14:54.633Z,99770.47
2022-12-26T14:17:40.889Z,99766.81
2022-12-26T14:20:37.209Z,99766.81
2022-12-26T14:23:22.720Z,99764.19
2022-12-26T14:25:58.966Z,99767.50
2022-12-26T14:28:33.913Z,99774.13
2022-12-26T14:31:14.657Z,99769.97
2022-12-26T14:33:50.903Z,99768.81
2022-12-26T14:36:35.205Z,99768.66
2022-12-26T14:39:13.812Z,99766.16
2022-12-26T14:42:36.749Z,99768.13
2022-12-26T14:45:34.245Z,99774.56
2022-12-26T14:48:02.269Z,99769.63
2022-12-26T14:50:43.210Z,99780.06
2022-12-26T14:53:38.038Z,99777.13
2022-12-26T14:56:33.986Z,99762.03
2022-12-26T14:59:28.617Z,99769.16
2022-12-26T15:02:11.668Z,99759.56
2022-12-26T15:04:52.582Z,99764.03
2022-12-26T15:08:07.863Z,99763.53
2022-12-26T15:11:21.940Z,99773.28
2022-12-26T15:14:29.784Z,99769.34
2022-12-26T15:17:09.450Z,99775.63
2022-12-26T15:20:16.704Z,99764.03
2022-12-26T15:23:07.033Z,99761.22
2022-12-26T15:26:05.180Z,99763.19
2022-12-26T15:28:57.651Z,99772.94
2022-12-26T15:31:37.857Z,99783.06
2022-12-26T15:34:26.806Z,99786.66
2022-12-26T15:36:58.072Z,99780.72
2022-12-26T15:39:33.568Z,99790.47
2022-12-26T15:42:17.001Z,99797.56
2022-12-26T15:44:52.150Z,99794.63
2022-12-26T15:47:28.252Z,99807.56
2022-12-26T15:50:18.408Z,99808.44
2022-12-26T15:52:56.652Z,99807.97
2022-12-26T15:55:39.164Z,99825.00
2022-12-26T15:58:16.779Z,99820.22
2022-12-26T16:00:50.121Z,99841.63
2022-12-26T16:03:30.733Z,99839.81
2022-12-26T16:06:16.070Z,99836.50
2022-12-26T16:09:04.763Z,99859.53
2022-12-26T16:11:54.199Z,99859.03
2022-12-26T16:14:31.890Z,99853.41
2022-12-26T16:17:19.654Z,99875.22
2022-12-26T16:19:48.807Z,99866.63
2022-12-26T16:22:41.788Z,99870.91
2022-12-26T16:25:11.678Z,99885.97
2022-12-26T16:27:39.854Z,99859.63
2022-12-26T16:30:14.002Z,99870.22
2022-12-26T16:32:43.897Z,99877.97
2022-12-26T16:35:20.051Z,99883.56
2022-12-26T16:37:50.987Z,99900.94
2022-12-26T16:40:25.543Z,99909.84
2022-12-26T16:43:02.679Z,99902.06
2022-12-26T16:45:33.789Z,99914.09
2022-12-26T16:48:02.195Z,99901.16
2022-12-26T16:50:32.816Z,99897.47
2022-12-26T16:53:10.837Z,99895.47
2022-12-26T16:55:46.550Z,99893.91
2022-12-26T16:58:19.037Z,99899.81
2022-12-26T17:00:49.778Z,99893.84
2022-12-26T17:03:27.385Z,99895.03
2022-12-26T17:05:55.403Z,99894.38
2022-12-26T17:08:25.970Z,99905.28
2022-12-26T17:10:53.895Z,99908.06
2022-12-26T17:13:25.654Z,99910.69
2022-12-26T17:15:56.691Z,99919.31
2022-12-26T17:18:41.397Z,99925.75
2022-12-26T17:21:19.096Z,99946.22
2022-12-26T17:24:17.595Z,99968.94
2022-12-26T17:26:45.362Z,99974.22
2022-12-26T17:29:50.522Z,99962.69
2022-12-26T17:32:26.844Z,99949.81
2022-12-26T17:34:54.632Z,99960.88
2022-12-26T17:37:25.432Z,99964.97
2022-12-26T17:40:03.067Z,99960.81
2022-12-26T17:42:45.472Z,99942.25
2022-12-26T17:45:17.483Z,99946.44
2022-12-26T17:47:45.177Z,99963.13
2022-12-26T17:50:13.448Z,99980.09
2022-12-26T17:52:41.557Z,99974.16
2022-12-26T17:55:19.711Z,99975.66
2022-12-26T17:57:47.869Z,99979.34
2022-12-26T18:00:18.200Z,99974.19
2022-12-26T18:02:45.844Z,99977.41
2022-12-26T18:05:14.076Z,99974.19
2022-12-26T18:07:42.217Z,99962.63
2022-12-26T18:10:19.342Z,99981.69
2022-12-26T18:12:47.132Z,99994.22
2022-12-26T18:15:14.823Z,99983.28
2022-12-26T18:17:43.029Z,99981.44
2022-12-26T18:20:16.895Z,99966.06
2022-12-26T18:22:44.455Z,99957.69
2022-12-26T18:25:13.464Z,99961.84
2022-12-26T18:27:43.000Z,99969.88
2022-12-26T18:30:17.297Z,99971.72
2022-12-26T18:32:45.639Z,99976.31
2022-12-26T18:35:14.000Z,99989.66
2022-12-26T18:37:44.270Z,99983.31
2022-12-26T18:40:27.310Z,99987.16
2022-12-26T18:42:56.792Z,99994.13
2022-12-26T18:45:24.586Z,100017.44
2022-12-26T18:47:52.339Z,100016.38
2022-12-26T18:50:20.325Z,100024.22
2022-12-26T18:52:53.323Z,100042.78
2022-12-26T18:55:22.011Z,100049.69
2022-12-26T18:57:50.007Z,100061.13
2022-12-26T19:00:20.985Z,100065.59
2022-12-26T19:02:49.832Z,100072.59
2022-12-26T19:05:20.828Z,100077.94
2022-12-26T19:07:50.273Z,100081.16
2022-12-26T19:10:19.111Z,100083.25
2022-12-26T19:12:47.531Z,100093.56
2022-12-26T19:15:16.008Z,100095.66
2022-12-26T19:17:45.049Z,100098.91
2022-12-26T19:20:25.269Z,100110.16
2022-12-26T19:22:54.862Z,100119.03
2022-12-26T19:25:24.181Z,100118.91
2022-12-26T19:27:52.292Z,100122.84
2022-12-26T19:30:21.412Z,100116.25
2022-12-26T19:32:50.771Z,100130.19
2022-12-26T19:35:19.039Z,100126.13
2022-12-26T19:37:46.805Z,100136.53
2022-12-26T19:40:21.197Z,100137.25
2022-12-26T19:42:50.765Z,100133.78
2022-12-26T19:45:18.611Z,100150.53
2022-12-26T19:47:46.432Z,100159.56
2022-12-26T19:50:15.845Z,100164.38
2022-12-26T19:52:43.603Z,100168.69
2022-12-26T19:55:12.835Z,100179.69
2022-12-26T19:57:40.484Z,100184.53
2022-12-26T20:00:11.066Z,100195.06
2022-12-26T20:02:39.012Z,100204.91
2022-12-26T20:05:07.720Z,100216.16
2022-12-26T20:07:37.035Z,100242.38
2022-12-26T20:10:05.727Z,100250.94
2022-12-26T20:12:33.488Z,100261.78
2022-12-26T20:15:01.203Z,100258.03
2022-12-26T20:17:28.966Z,100266.06
2022-12-26T20:19:56.823Z,100279.63
2022-12-26T20:22:24.684Z,100275.59
2022-12-26T20:24:53.807Z,100270.34
2022-12-26T20:27:21.556Z,100276.03
2022-12-26T20:29:49.224Z,100288.34
2022-12-26T20:32:17.410Z,100292.50
2022-12-26T20:34:45.173Z,100295.84
2022-12-26T20:37:13.032Z,100305.06
2022-12-26T20:39:40.799Z,100313.66
2022-12-26T20:42:11.035Z,100320.78
2022-12-26T20:44:41.453Z,100319.47
2022-12-26T20:47:09.279Z,100328.41
2022-12-26T20:49:37.026Z,100326.88
2022-12-26T20:52:05.372Z,100329.38
2022-12-26T20:54:33.230Z,100331.25
2022-12-26T20:57:00.950Z,100334.34
2022-12-26T20:59:30.210Z,100329.69
2022-12-26T21:01:58.104Z,100334.84
2022-12-26T21:04:25.749Z,100344.00
2022-12-26T21:06:53.480Z,100349.66
2022-12-26T21:09:21.085Z,100356.53
2022-12-26T21:11:48.690Z,100369.16
2022-12-26T21:14:18.406Z,100357.59
2022-12-26T21:16:49.888Z,100358.09
2022-12-26T21:19:18.866Z,100361.41
2022-12-26T21:21:48.892Z,100372.13
2022-12-26T21:24:19.292Z,100384.72
2022-12-26T21:26:47.785Z,100389.44
2022-12-26T21:29:18.995Z,100397.22
2022-12-26T21:31:48.435Z,100404.25
2022-12-26T21:34:17.571Z,100408.38
2022-12-26T21:37:06.039Z,100416.00
2022-12-26T21:39:34.954Z,100423.34
2022-12-26T21:42:02.751Z,100437.69
2022-12-26T21:44:30.311Z,100452.19
2022-12-26T21:46:59.271Z,100473.91
2022-12-26T21:49:26.821Z,100483.81
2022-12-26T21:51:54.447Z,100485.88
2022-12-26T21:54:44.823Z,100496.28
2022-12-26T21:57:16.094Z,100497.81
2022-12-26T21:59:59.664Z,100497.44
2022-12-26T22:02:48.356Z,100512.47
2022-12-26T22:05:17.008Z,100516.44
2022-12-26T22:07:44.983Z,100517.41
2022-12-26T22:10:34.621Z,100524.09
2022-12-26T22:13:01.968Z,100531.50
2022-12-26T22:15:47.363Z,100541.84
2022-12-26T22:18:16.615Z,100559.09
2022-12-26T22:20:45.806Z,100555.59
2022-12-26T22:23:13.969Z,100548.69
2022-12-26T22:25:41.611Z,100573.03
2022-12-26T22:28:09.226Z,100572.22
2022-12-26T22:30:36.801Z,100576.91
2022-12-26T22:33:04.513Z,100580.34
2022-12-26T22:35:33.579Z,100591.81
2022-12-26T22:38:01.107Z,100589.66
2022-12-26T22:40:28.638Z,100609.44
2022-12-26T22:42:56.188Z,100594.84
2022-12-26T22:45:23.788Z,100598.56
2022-12-26T22:47:51.350Z,100609.91
2022-12-26T22:50:19.121Z,100618.63
2022-12-26T22:52:48.146Z,100628.03
2022-12-26T22:55:15.771Z,100637.31
2022-12-26T22:57:48.187Z,100642.66
2022-12-26T23:00:19.054Z,100644.22
2022-12-26T23:02:46.894Z,100649.25
2022-12-26T23:05:15.380Z,100652.13
2022-12-26T23:07:43.652Z,100655.22
2022-12-26T23:10:19.051Z,100662.94
2022-12-26T23:12:47.883Z,100660.19
2022-12-26T23:15:18.439Z,100656.31
2022-12-26T23:18:09.165Z,100663.00
2022-12-26T23:20:56.575Z,100658.31
2022-12-26T23:23:25.129Z,100664.44
2022-12-26T23:25:54.144Z,100664.94
2022-12-26T23:28:39.186Z,100665.84
2022-12-26T23:31:06.838Z,100668.00
2022-12-26T23:33:34.465Z,100683.16
2022-12-26T23:36:02.302Z,100672.91
2022-12-26T23:38:29.953Z,100679.19
2022-12-26T23:40:58.837Z,100676.97
2022-12-26T23:43:26.405Z,100677.97
2022-12-26T23:45:53.993Z,100677.66
2022-12-26T23:48:21.543Z,100674.84
2022-12-26T23:50:49.466Z,100677.84
2022-12-26T23:53:17.125Z,100677.66
2022-12-26T23:55:44.664Z,100678.38
2022-12-26T23:58:13.540Z,100676.47
